Time;durP1;ratioP1;P1;durP2;ratioP2;P2;SDS_P1;SDS_P2;PMS_P1;PMS_P2;Temp;Humidity;BMP_temperature;BMP_pressure;BME280_temperature;BME280_humidity;BME280_pressure;Samples;Min_cycle;Max_cycle;Signal;HPM_P1;HPM_P2
2022/06/05 00:01:08;;;;;;;3.72;2.40;;;;;;;18.02;52.01;146684.20;1716843;84;21042;-55
2022/06/05 00:03:48;;;;;;;3.52;2.20;;;;;;;17.99;52.12;146679.16;1717404;82;21510;-55
2022/06/05 00:06:23;;;;;;;5.33;2.45;;;;;;;17.99;52.11;146677.91;1716354;83;21074;-58
2022/06/05 00:09:13;;;;;;;4.40;2.98;;;;;;;17.98;52.31;146676.59;1686675;84;21098;-56
2022/06/05 00:11:52;;;;;;;6.25;2.50;;;;;;;17.99;52.38;146677.91;1726684;82;21107;-57
2022/06/05 00:14:21;;;;;;;7.10;2.72;;;;;;;18.00;52.40;146681.66;1723300;82;21099;-57
2022/06/05 00:16:48;;;;;;;3.87;2.42;;;;;;;18.02;52.18;146684.20;1715754;83;20997;-56
2022/06/05 00:19:16;;;;;;;4.67;2.37;;;;;;;18.02;52.18;146684.20;1711587;83;21063;-55
2022/06/05 00:21:43;;;;;;;5.67;2.98;;;;;;;18.04;52.11;146689.22;1703417;84;21024;-57
2022/06/05 00:24:10;;;;;;;5.35;2.87;;;;;;;18.07;52.18;146696.81;1703496;83;21016;-57
2022/06/05 00:26:59;;;;;;;4.47;2.40;;;;;;;18.08;52.08;146699.33;1703130;84;21036;-56
2022/06/05 00:29:59;;;;;;;5.05;2.70;;;;;;;18.08;52.21;146699.33;1703111;84;21059;-57
2022/06/05 00:32:45;;;;;;;5.97;2.77;;;;;;;18.08;52.50;146699.33;1703089;84;21044;-56
2022/06/05 00:35:16;;;;;;;5.97;2.50;;;;;;;18.07;52.53;146696.81;1703227;84;21518;-56
2022/06/05 00:37:54;;;;;;;4.67;3.00;;;;;;;18.04;52.65;146689.22;1703247;84;21452;-57
2022/06/05 00:40:49;;;;;;;7.92;2.37;;;;;;;18.00;52.73;146681.66;1702907;84;21024;-56
2022/06/05 00:43:20;;;;;;;5.25;2.72;;;;;;;17.98;52.73;146676.59;1702308;84;21084;-56
2022/06/05 00:45:47;;;;;;;7.62;2.60;;;;;;;17.97;52.96;146672.84;1703389;83;21068;-56
2022/06/05 00:48:15;;;;;;;6.12;2.60;;;;;;;17.95;53.06;146667.80;1703124;84;21353;-56
2022/06/05 00:50:44;;;;;;;3.65;2.42;;;;;;;17.91;53.05;146658.98;1703123;84;21051;-55
2022/06/05 00:53:12;;;;;;;4.87;2.35;;;;;;;17.90;53.17;146655.17;1703281;84;21565;-56
2022/06/05 00:55:47;;;;;;;4.83;2.58;;;;;;;17.88;53.15;146651.37;1700895;83;21070;-56
2022/06/05 00:58:16;;;;;;;4.15;2.10;;;;;;;17.88;53.21;146650.13;1702668;84;21054;-56
2022/06/05 01:00:51;;;;;;;5.25;2.42;;;;;;;17.87;53.28;146648.88;1703227;84;21059;-57
2022/06/05 01:03:21;;;;;;;5.08;3.05;;;;;;;17.86;53.35;146646.38;1682198;84;21051;-57
2022/06/05 01:05:48;;;;;;;4.92;2.50;;;;;;;17.85;53.49;146643.81;1702939;84;21032;-56
2022/06/05 01:08:16;;;;;;;7.22;3.33;;;;;;;17.82;53.49;146636.27;1703001;83;21098;-56
2022/06/05 01:10:58;;;;;;;5.22;2.60;;;;;;;17.82;53.48;146635.00;1703173;84;21556;-56
2022/06/05 01:13:41;;;;;;;6.37;2.67;;;;;;;17.82;53.48;146635.00;1702667;84;21110;-56
2022/06/05 01:16:32;;;;;;;5.78;2.83;;;;;;;17.81;53.31;146633.75;1703971;84;21082;-56
2022/06/05 01:19:40;;;;;;;5.25;3.20;;;;;;;17.80;53.56;146631.20;1705841;84;21137;-57
2022/06/05 01:22:23;;;;;;;4.55;2.85;;;;;;;17.77;53.48;146623.59;1703350;84;21536;-56
2022/06/05 01:25:37;;;;;;;4.22;2.65;;;;;;;17.77;53.48;146623.59;1703052;84;21517;-56
2022/06/05 01:28:12;;;;;;;5.03;3.17;;;;;;;17.75;53.57;146619.80;1541949;90;21522;-56
2022/06/05 01:30:51;;;;;;;4.62;3.17;;;;;;;17.73;53.89;146613.48;1567052;89;21068;-56
2022/06/05 01:33:23;;;;;;;4.45;3.10;;;;;;;17.74;53.54;146616.05;1635541;86;21106;-56
2022/06/05 01:36:19;;;;;;;7.72;3.12;;;;;;;17.71;53.65;146609.73;1675809;84;21070;-57
2022/06/05 01:39:01;;;;;;;7.45;2.95;;;;;;;17.71;53.64;146608.48;1674525;86;21047;-56
2022/06/05 01:41:46;;;;;;;4.75;3.15;;;;;;;17.68;54.05;146600.88;1662887;86;21106;-56
2022/06/05 01:44:21;;;;;;;7.65;3.15;;;;;;;17.68;53.89;146600.88;1674287;85;21039;-56
2022/06/05 01:46:52;;;;;;;4.62;2.80;;;;;;;17.66;53.98;146595.88;1685251;84;21473;-54
2022/06/05 01:49:27;;;;;;;5.90;3.70;;;;;;;17.64;54.01;146592.08;1715668;84;21052;-57
2022/06/05 01:52:18;;;;;;;5.25;2.98;;;;;;;17.64;54.00;146590.81;1716057;84;21077;-56
2022/06/05 01:55:03;;;;;;;7.83;2.63;;;;;;;17.62;54.26;146585.77;1690047;84;21590;-56
2022/06/05 01:57:33;;;;;;;5.10;2.90;;;;;;;17.60;54.26;146581.97;1675336;86;21071;-56
2022/06/05 02:00:15;;;;;;;6.50;3.22;;;;;;;17.57;54.46;146575.66;1675281;86;21080;-56
2022/06/05 02:02:48;;;;;;;5.83;2.60;;;;;;;17.58;54.37;146578.22;1675303;86;21031;-56
2022/06/05 02:05:29;;;;;;;4.65;2.58;;;;;;;17.58;54.32;146578.22;1702533;84;21043;-58
2022/06/05 02:08:05;;;;;;;5.15;2.45;;;;;;;17.57;54.42;146575.66;1701776;84;21082;-56
2022/06/05 02:10:41;;;;;;;7.12;2.80;;;;;;;17.55;54.31;146570.66;1706684;84;21485;-56
2022/06/05 02:13:09;;;;;;;5.30;2.60;;;;;;;17.55;54.37;146570.66;1706281;84;21054;-57
2022/06/05 02:15:36;;;;;;;5.65;2.55;;;;;;;17.55;54.20;146570.66;1697276;84;21118;-55
2022/06/05 02:18:05;;;;;;;4.85;2.62;;;;;;;17.55;54.16;146570.66;1692202;85;21088;-57
2022/06/05 02:20:35;;;;;;;4.12;2.60;;;;;;;17.54;53.95;146568.09;1688804;85;21525;-56
2022/06/05 02:23:05;;;;;;;4.20;2.47;;;;;;;17.54;53.97;146568.09;1690239;85;21044;-56
2022/06/05 02:25:34;;;;;;;4.53;2.47;;;;;;;17.55;54.22;146570.66;1690243;85;21020;-57
2022/06/05 02:28:02;;;;;;;4.08;2.20;;;;;;;17.55;54.02;146570.66;1690194;85;21052;-57
2022/06/05 02:30:43;;;;;;;4.42;2.20;;;;;;;17.54;54.17;146568.09;1690014;85;21087;-56
2022/06/05 02:33:35;;;;;;;5.30;2.17;;;;;;;17.56;53.72;146571.91;1677894;85;21088;-56
2022/06/05 02:36:10;;;;;;;5.78;2.30;;;;;;;17.56;53.72;146571.91;1692407;85;21040;-56
2022/06/05 02:39:09;;;;;;;6.40;2.10;;;;;;;17.58;53.96;146576.97;1691894;85;21036;-54
2022/06/05 02:42:04;;;;;;;6.20;2.05;;;;;;;17.60;53.96;146581.97;1692238;85;21099;-56
2022/06/05 02:44:52;;;;;;;4.45;1.90;;;;;;;17.61;53.26;146583.27;1692226;85;21173;-56
2022/06/05 02:47:42;;;;;;;3.58;2.00;;;;;;;17.61;53.26;146583.27;1690659;85;21035;-56
2022/06/05 02:50:23;;;;;;;3.45;1.90;;;;;;;17.62;53.72;146585.77;1692274;85;21040;-56
2022/06/05 02:52:52;;;;;;;3.65;2.37;;;;;;;17.62;53.72;146585.77;1694454;85;21044;-55
2022/06/05 02:55:22;;;;;;;3.55;1.98;;;;;;;17.64;53.45;146590.81;1694923;85;21015;-56
2022/06/05 02:57:49;;;;;;;3.65;2.00;;;;;;;17.64;53.45;146590.81;1695077;85;21051;-56
2022/06/05 03:00:21;;;;;;;3.98;1.90;;;;;;;17.64;53.89;146590.81;1694856;85;21015;-56
2022/06/05 03:05:37;;;;;;;6.47;2.20;;;;;;;17.67;53.97;146598.38;1694742;85;21514;-57
2022/06/05 03:08:08;;;;;;;;;;;;;;;17.64;53.94;146592.08;1697234;84;21529;-57
2022/06/05 03:10:35;;;;;;;3.17;2.00;;;;;;;17.62;54.01;146585.77;1694933;84;20133;-56
2022/06/05 03:13:03;;;;;;;3.37;2.00;;;;;;;17.62;54.22;146587.02;1693918;83;21012;-56
2022/06/05 03:15:30;;;;;;;4.53;2.08;;;;;;;17.62;54.22;146587.02;1714133;83;21525;-56
2022/06/05 03:17:57;;;;;;;6.97;2.00;;;;;;;17.64;54.02;146592.08;1728880;83;21544;-57
2022/06/05 03:20:25;;;;;;;3.95;1.92;;;;;;;17.66;53.84;146595.88;1729003;83;21556;-56
2022/06/05 03:22:53;;;;;;;5.60;1.90;;;;;;;17.69;53.94;146603.44;1727099;83;21024;-56
2022/06/05 03:25:23;;;;;;;5.80;2.40;;;;;;;17.72;53.94;146612.25;1729172;83;21027;-56
2022/06/05 03:27:52;;;;;;;4.00;2.00;;;;;;;17.72;53.94;146612.25;1728729;83;21584;-56
2022/06/05 03:30:21;;;;;;;4.30;1.80;;;;;;;17.73;53.80;146614.80;1729147;83;21525;-57
2022/06/05 03:32:48;;;;;;;5.50;1.90;;;;;;;17.75;53.62;146619.80;1721292;83;21128;-57
2022/06/05 03:35:17;;;;;;;3.70;1.90;;;;;;;17.76;53.46;146622.34;1716379;82;21689;-55
2022/06/05 03:37:45;;;;;;;4.12;2.00;;;;;;;17.76;53.46;146622.34;1717067;82;21078;-58
2022/06/05 03:40:15;;;;;;;4.83;2.00;;;;;;;17.77;53.78;146624.84;1716616;84;21011;-56
2022/06/05 03:42:43;;;;;;;5.10;2.40;;;;;;;17.76;53.67;146622.34;1725633;83;21493;-57
2022/06/05 03:45:16;;;;;;;5.35;2.02;;;;;;;17.79;53.87;146629.95;1726038;83;21051;-57
2022/06/05 03:47:44;;;;;;;3.20;1.75;;;;;;;17.79;54.14;146628.66;1726047;83;21529;-57
2022/06/05 03:50:14;;;;;;;4.03;2.12;;;;;;;17.79;54.14;146628.66;1723709;83;21060;-57
2022/06/05 03:52:41;;;;;;;5.83;2.15;;;;;;;17.76;53.88;146621.09;1716981;83;21055;-57
2022/06/05 03:55:12;;;;;;;4.42;2.10;;;;;;;17.72;53.99;146610.98;1726040;83;21032;-57
2022/06/05 03:57:41;;;;;;;5.12;2.50;;;;;;;17.71;54.08;146608.48;1726096;83;21501;-57
2022/06/05 04:00:11;;;;;;;6.12;2.55;;;;;;;17.69;54.19;146604.69;1725071;83;21032;-57
2022/06/05 04:02:44;;;;;;;3.50;2.10;;;;;;;17.70;54.56;146605.94;1725855;82;21052;-57
2022/06/05 04:05:15;;;;;;;5.78;2.37;;;;;;;17.70;54.56;146605.94;1725712;83;21047;-56
2022/06/05 04:07:42;;;;;;;6.03;2.35;;;;;;;17.68;54.38;146602.19;1726115;82;21044;-56
2022/06/05 04:10:14;;;;;;;5.95;2.20;;;;;;;17.68;54.38;146602.19;1722270;83;21042;-56
2022/06/05 04:12:41;;;;;;;3.85;1.87;;;;;;;17.70;53.73;146605.94;1713597;82;20983;-55
2022/06/05 04:15:09;;;;;;;5.47;2.52;;;;;;;17.73;54.21;146613.48;1712741;83;21027;-55
2022/06/05 04:17:37;;;;;;;5.53;2.17;;;;;;;17.75;54.08;146619.80;1709259;84;21023;-56
2022/06/05 04:20:06;;;;;;;3.98;2.30;;;;;;;17.78;54.21;146626.11;1709144;83;21021;-55
2022/06/05 04:22:36;;;;;;;3.80;2.10;;;;;;;17.83;54.23;146637.50;1709440;84;21023;-56
2022/06/05 04:25:07;;;;;;;4.85;2.30;;;;;;;17.83;54.23;146637.50;1709148;84;21079;-55
2022/06/05 04:27:35;;;;;;;4.35;2.08;;;;;;;17.88;53.67;146651.37;1709548;83;21079;-55
2022/06/05 04:30:02;;;;;;;5.80;2.58;;;;;;;17.94;53.67;146666.53;1709227;84;21036;-57
2022/06/05 04:32:29;;;;;;;5.30;2.30;;;;;;;18.02;54.03;146684.20;1709414;83;21019;-56
2022/06/05 04:34:56;;;;;;;4.05;2.08;;;;;;;18.08;54.33;146699.33;1709304;84;21038;-56
2022/06/05 04:37:23;;;;;;;5.10;2.70;;;;;;;18.10;54.50;146705.63;1709432;84;21066;-57
2022/06/05 04:39:49;;;;;;;6.33;3.05;;;;;;;18.13;55.45;146711.94;1709215;84;21163;-55
2022/06/05 04:42:16;;;;;;;6.42;3.10;;;;;;;18.12;56.09;146709.44;1709149;84;21035;-55
2022/06/05 04:44:43;;;;;;;5.10;3.60;;;;;;;18.09;56.50;146701.83;1709176;83;21545;-55
2022/06/05 04:47:10;;;;;;;7.90;4.35;;;;;;;18.09;57.46;146701.83;1713890;82;21087;-56
2022/06/05 04:49:38;;;;;;;9.33;4.45;;;;;;;18.04;58.21;146689.22;1696051;83;21510;-54
2022/06/05 04:52:05;;;;;;;7.37;4.58;;;;;;;17.98;58.81;146676.59;1721618;82;21563;-58
2022/06/05 04:54:32;;;;;;;9.80;5.03;;;;;;;17.96;59.09;146670.30;1709924;84;21035;-56
2022/06/05 04:56:59;;;;;;;12.28;5.60;;;;;;;17.89;59.43;146653.94;1721719;82;21039;-56
2022/06/05 04:59:26;;;;;;;10.80;5.83;;;;;;;17.78;59.41;146626.11;1709670;82;21156;-56
2022/06/05 05:01:53;;;;;;;12.05;6.40;;;;;;;17.70;60.01;146605.94;1698698;84;21075;-56
2022/06/05 05:04:20;;;;;;;8.90;6.30;;;;;;;17.68;59.78;146600.88;1696405;85;20991;-56
2022/06/05 05:06:47;;;;;;;10.72;5.87;;;;;;;17.68;59.88;146600.88;1698610;84;21039;-56
2022/06/05 05:09:14;;;;;;;10.85;5.75;;;;;;;17.74;60.12;146616.05;1695935;85;21056;-56
2022/06/05 05:11:43;;;;;;;9.58;5.67;;;;;;;17.82;60.25;146635.00;1712003;82;21027;-56
2022/06/05 05:14:10;;;;;;;10.72;5.80;;;;;;;17.89;59.74;146652.67;1720661;82;21011;-57
2022/06/05 05:16:39;;;;;;;8.48;5.33;;;;;;;17.95;59.02;146669.03;1728500;83;21060;-56
2022/06/05 05:19:09;;;;;;;10.13;6.35;;;;;;;17.99;57.89;146677.91;1736879;83;21071;-56
2022/06/05 05:21:36;;;;;;;8.33;5.42;;;;;;;18.03;58.29;146687.97;1736761;82;21085;-56
2022/06/05 05:24:05;;;;;;;10.40;6.35;;;;;;;18.11;57.87;146706.88;1736705;82;21075;-56
2022/06/05 05:26:34;;;;;;;13.55;5.95;;;;;;;18.17;58.24;146723.30;1736938;83;20974;-55
2022/06/05 05:29:04;;;;;;;9.13;5.60;;;;;;;18.22;58.03;146734.67;1707456;83;21047;-56
2022/06/05 05:31:35;;;;;;;11.68;6.12;;;;;;;18.26;57.92;146744.73;1704569;84;21110;-56
2022/06/05 05:34:02;;;;;;;10.35;5.95;;;;;;;18.30;57.85;146754.84;1716091;83;21501;-57
2022/06/05 05:36:29;;;;;;;11.25;6.37;;;;;;;18.33;57.70;146761.16;1734884;83;21069;-57
2022/06/05 05:42:05;;;;;;;10.68;6.30;;;;;;;18.39;57.29;146777.56;1734816;83;21014;-57
2022/06/05 05:44:40;;;;;;;11.63;6.45;;;;;;;18.47;56.85;146796.50;1735063;83;21069;-56
2022/06/05 05:47:18;;;;;;;9.13;5.65;;;;;;;18.57;56.43;146821.73;1734846;83;21068;-56
2022/06/05 05:49:45;;;;;;;12.73;6.15;;;;;;;18.64;56.13;146839.36;1735137;82;21601;-57
2022/06/05 05:52:13;;;;;;;11.55;7.17;;;;;;;18.72;56.42;146857.03;1734846;83;21025;-57
2022/06/05 05:54:41;;;;;;;12.18;6.90;;;;;;;18.79;56.52;146876.02;1733959;83;21049;-57
2022/06/05 05:57:08;;;;;;;11.97;6.97;;;;;;;18.87;56.65;146896.20;1706436;83;21532;-56
2022/06/05 05:59:36;;;;;;;12.73;6.72;;;;;;;18.92;56.81;146906.31;1735020;83;21035;-57
2022/06/05 06:02:10;;;;;;;12.45;7.47;;;;;;;18.92;56.92;146907.56;1728006;83;21084;-56
2022/06/05 06:04:35;;;;;;;13.13;7.30;;;;;;;18.93;57.28;146908.83;1728136;82;21092;-56
2022/06/05 06:07:02;;;;;;;14.80;8.15;;;;;;;18.98;57.31;146921.44;1727126;83;21046;-57
2022/06/05 06:09:30;;;;;;;13.45;7.67;;;;;;;18.96;57.11;146916.44;1729208;83;21039;-56
2022/06/05 06:11:57;;;;;;;12.60;7.45;;;;;;;18.97;57.24;146920.19;1729403;83;21044;-56
2022/06/05 06:14:26;;;;;;;13.65;7.12;;;;;;;19.04;57.17;146936.63;1729401;83;21068;-57
2022/06/05 06:16:53;;;;;;;12.73;7.47;;;;;;;19.11;57.36;146954.30;1726944;83;21048;-56
2022/06/05 06:19:20;;;;;;;13.08;7.15;;;;;;;19.23;56.62;146983.31;1723723;83;21046;-56
2022/06/05 06:21:47;;;;;;;12.45;7.55;;;;;;;19.34;56.55;147011.11;1725718;82;21482;-56
2022/06/05 06:24:14;;;;;;;13.88;7.47;;;;;;;19.43;56.51;147033.81;1725608;82;21494;-56
2022/06/05 06:26:41;;;;;;;14.90;7.62;;;;;;;19.58;56.47;147070.44;1725797;83;21055;-55
2022/06/05 06:29:10;;;;;;;13.85;7.53;;;;;;;19.72;55.66;147105.87;1699523;82;21054;-57
2022/06/05 06:31:38;;;;;;;16.20;7.58;;;;;;;19.85;55.59;147136.19;1687737;84;21173;-57
2022/06/05 06:34:06;;;;;;;14.30;7.33;;;;;;;19.96;55.35;147163.97;1688239;84;21039;-56
2022/06/05 06:36:35;;;;;;;11.30;7.47;;;;;;;20.03;54.39;147181.66;1687841;84;21521;-56
2022/06/05 06:39:03;;;;;;;16.40;7.50;;;;;;;20.09;53.79;147196.80;1692988;83;21048;-57
2022/06/05 06:41:30;;;;;;;13.50;7.78;;;;;;;20.13;53.33;147206.91;1687697;83;21105;-57
2022/06/05 06:43:57;;;;;;;13.98;7.75;;;;;;;20.18;53.02;147217.05;1688014;83;21047;-56
2022/06/05 06:46:24;;;;;;;12.20;7.42;;;;;;;20.20;53.24;147223.36;1690292;83;21051;-57
2022/06/05 06:48:53;;;;;;;14.98;9.13;;;;;;;20.24;53.01;147232.19;1687715;84;21087;-56
2022/06/05 06:51:19;;;;;;;14.10;8.15;;;;;;;20.25;53.85;147234.69;1687788;84;21023;-57
2022/06/05 06:53:46;;;;;;;11.75;7.50;;;;;;;20.25;54.63;147234.69;1688017;84;21047;-56
2022/06/05 06:56:18;;;;;;;12.47;6.87;;;;;;;20.31;54.89;147249.88;1690146;83;21063;-56
2022/06/05 06:58:45;;;;;;;11.83;6.15;;;;;;;20.24;54.84;147232.19;1688035;83;21015;-56
2022/06/05 07:01:13;;;;;;;7.85;5.62;;;;;;;20.13;55.93;147206.91;1687768;84;21063;-55
2022/06/05 07:03:40;;;;;;;8.20;5.65;;;;;;;20.05;57.17;147186.72;1687746;84;21047;-56
2022/06/05 07:06:12;;;;;;;7.28;4.25;;;;;;;19.94;60.56;147160.16;1696893;83;21104;-56
2022/06/05 07:08:40;;;;;;;6.00;4.05;;;;;;;19.76;62.10;147113.44;1703079;83;21044;-56
2022/06/05 07:11:10;;;;;;;6.42;3.80;;;;;;;19.59;62.48;147071.69;1687962;84;21026;-55
2022/06/05 07:13:38;;;;;;;5.87;3.55;;;;;;;19.46;63.01;147040.12;1716590;82;21020;-56
2022/06/05 07:16:09;;;;;;;6.53;3.50;;;;;;;19.33;62.70;147007.31;1716001;84;21088;-55
2022/06/05 07:18:37;;;;;;;7.55;3.42;;;;;;;19.22;62.52;146982.06;1714850;84;21562;-56
2022/06/05 07:21:17;;;;;;;5.00;3.42;;;;;;;19.12;62.83;146956.81;1714844;84;21080;-56
2022/06/05 07:23:46;;;;;;;6.42;3.55;;;;;;;19.04;62.35;146936.63;1713078;84;21142;-56
2022/06/05 07:26:16;;;;;;;7.83;3.70;;;;;;;18.97;62.76;146918.94;1698722;84;21552;-57
2022/06/05 07:28:43;;;;;;;4.95;3.40;;;;;;;18.92;63.21;146906.31;1729419;82;21026;-56
2022/06/05 07:31:12;;;;;;;6.75;3.33;;;;;;;18.89;62.80;146900.00;1700178;84;21047;-56
2022/06/05 07:33:41;;;;;;;6.92;3.50;;;;;;;18.90;61.77;146901.25;1694862;83;21060;-56
2022/06/05 07:36:12;;;;;;;6.50;3.20;;;;;;;18.92;60.80;146906.31;1729431;82;21013;-56
2022/06/05 07:38:40;;;;;;;7.03;3.23;;;;;;;18.97;60.20;146918.94;1700643;84;20991;-56
2022/06/05 07:41:18;;;;;;;4.62;3.10;;;;;;;18.99;59.81;146924.00;1694936;85;21092;-56
2022/06/05 07:43:45;;;;;;;5.12;3.30;;;;;;;18.97;59.70;146920.19;1707931;83;21165;-55
2022/06/05 07:46:12;;;;;;;6.35;3.05;;;;;;;18.95;60.17;146913.88;1727315;83;21053;-56
2022/06/05 07:48:40;;;;;;;5.55;2.85;;;;;;;18.98;60.08;146921.44;1727019;83;21046;-57
2022/06/05 07:56:47;;;;;;;4.10;2.90;;;;;;;18.99;59.34;146925.25;1727195;83;21120;-56
2022/06/05 07:59:14;;;;;;;5.12;3.12;;;;;;;19.01;59.43;146929.06;1727090;83;21097;-56
2022/06/05 08:01:41;;;;;;;6.00;3.05;;;;;;;19.01;58.97;146929.06;1727078;83;21037;-56
2022/06/05 08:04:10;;;;;;;5.95;3.60;;;;;;;18.98;59.03;146922.75;1725176;83;21049;-56
2022/06/05 08:06:39;;;;;;;6.25;3.08;;;;;;;18.92;59.17;146906.31;1729486;83;21032;-55
2022/06/05 08:09:08;;;;;;;7.53;3.17;;;;;;;18.83;59.61;146886.13;1729230;83;21585;-56
2022/06/05 08:11:39;;;;;;;5.55;3.45;;;;;;;18.79;60.12;146876.02;1729346;82;21525;-55
2022/06/05 08:14:06;;;;;;;5.65;3.00;;;;;;;18.78;60.53;146873.52;1727085;83;21568;-56
2022/06/05 08:16:33;;;;;;;7.30;3.20;;;;;;;18.84;61.05;146887.39;1730539;83;21510;-56
2022/06/05 08:19:00;;;;;;;10.82;3.40;;;;;;;18.92;61.48;146907.56;1733906;83;21046;-56
2022/06/05 08:21:27;;;;;;;5.78;3.20;;;;;;;19.02;61.65;146931.56;1734121;81;21079;-55
2022/06/05 08:23:54;;;;;;;5.80;3.35;;;;;;;19.09;61.66;146949.25;1721629;83;21048;-55
2022/06/05 08:26:21;;;;;;;5.28;3.42;;;;;;;19.17;61.97;146969.44;1733357;83;21039;-56
2022/06/05 08:28:48;;;;;;;5.67;3.45;;;;;;;19.34;62.10;147009.86;1734024;83;21035;-57
2022/06/05 08:31:16;;;;;;;5.53;3.00;;;;;;;19.48;61.41;147045.19;1733846;83;21087;-56
2022/06/05 08:33:44;;;;;;;4.12;2.65;;;;;;;19.55;60.12;147062.88;1689554;83;21055;-57
2022/06/05 08:36:11;;;;;;;5.35;2.80;;;;;;;19.57;60.08;147067.94;1687381;85;21561;-58
2022/06/05 08:41:44;;;;;;;5.92;2.65;;;;;;;19.51;59.55;147054.06;1711952;83;21535;-57
2022/06/05 08:44:34;;;;;;;4.22;2.83;;;;;;;19.45;59.91;147037.63;1709219;83;22202;-57
2022/06/05 08:47:18;;;;;;;4.65;2.67;;;;;;;19.45;60.13;147037.63;1706270;83;21522;-57
2022/06/05 08:50:26;;;;;;;4.67;2.77;;;;;;;19.41;60.10;147028.80;1706049;83;21003;-56
2022/06/05 08:53:22;;;;;;;5.15;2.52;;;;;;;19.39;60.35;147023.75;1716551;83;21912;-58
2022/06/05 08:55:53;;;;;;;5.10;2.83;;;;;;;19.44;59.86;147035.11;1716810;82;21059;-57
2022/06/05 08:58:38;;;;;;;4.87;2.47;;;;;;;19.38;60.34;147021.19;1717778;83;21097;-57
2022/06/05 09:01:36;;;;;;;4.67;2.87;;;;;;;19.35;60.39;147012.38;1666928;84;21048;-58
2022/06/05 09:04:26;;;;;;;7.03;2.80;;;;;;;19.29;60.61;146999.75;1719157;83;21052;-57
2022/06/05 09:07:01;;;;;;;5.05;2.90;;;;;;;19.27;61.13;146994.69;1710019;83;21048;-57
2022/06/05 09:09:35;;;;;;;7.08;3.30;;;;;;;19.29;61.50;146998.48;1718518;83;21042;-56
2022/06/05 09:12:38;;;;;;;6.87;2.90;;;;;;;19.36;61.46;147016.17;1716767;83;20991;-56
2022/06/05 09:15:13;;;;;;;5.67;3.60;;;;;;;19.40;61.41;147025.00;1717027;82;21500;-57
2022/06/05 09:17:45;;;;;;;4.90;3.22;;;;;;;19.39;61.95;147023.75;1716091;83;21034;-57
2022/06/05 09:20:18;;;;;;;4.70;2.85;;;;;;;19.41;62.32;147027.50;1698978;83;21047;-56
2022/06/05 09:22:57;;;;;;;7.72;3.30;;;;;;;19.60;62.42;147075.50;1702205;83;21052;-56
2022/06/05 09:25:39;;;;;;;5.80;3.17;;;;;;;19.85;61.86;147137.44;1701643;84;21007;-55
2022/06/05 09:28:17;;;;;;;5.25;2.98;;;;;;;20.04;60.84;147184.16;1696694;83;21027;-56
2022/06/05 09:30:56;;;;;;;5.55;3.40;;;;;;;20.04;61.22;147184.16;1667963;85;21028;-56
2022/06/05 09:33:36;;;;;;;4.33;2.50;;;;;;;20.13;61.27;147206.91;1671402;84;21506;-57
2022/06/05 09:36:08;;;;;;;4.25;2.30;;;;;;;20.29;60.98;147244.81;1674548;83;21004;-58
2022/06/05 09:38:43;;;;;;;5.37;2.65;;;;;;;20.32;60.08;147252.39;1679184;84;21211;-57
2022/06/05 09:41:39;;;;;;;4.87;3.08;;;;;;;20.21;59.19;147225.86;1673617;84;21048;-57
2022/06/05 09:44:20;;;;;;;3.90;2.40;;;;;;;20.13;59.44;147206.91;1669179;84;21062;-58
2022/06/05 09:47:01;;;;;;;4.00;2.20;;;;;;;20.12;58.80;147203.11;1683484;85;21044;-58
2022/06/05 09:49:45;;;;;;;5.75;2.47;;;;;;;20.02;58.29;147177.84;1676402;84;21099;-58
2022/06/05 09:52:20;;;;;;;6.10;2.60;;;;;;;19.93;58.57;147157.64;1675821;84;21508;-55
2022/06/05 09:55:17;;;;;;;6.60;2.40;;;;;;;19.88;59.04;147145.02;1673902;85;21028;-58
2022/06/05 09:58:40;;;;;;;5.10;2.40;;;;;;;19.90;58.98;147150.06;1682281;85;21054;-56
2022/06/05 10:01:28;;;;;;;5.30;2.37;;;;;;;19.96;59.15;147163.97;1671794;84;21088;-58
2022/06/05 10:03:58;;;;;;;5.70;2.40;;;;;;;20.10;59.09;147199.34;1680139;84;21003;-59
2022/06/05 10:06:55;;;;;;;3.50;2.22;;;;;;;20.24;58.75;147232.19;1675956;84;21024;-57
2022/06/05 10:09:27;;;;;;;4.55;2.60;;;;;;;20.26;57.71;147238.50;1680868;83;21007;-57
2022/06/05 10:12:29;;;;;;;4.53;2.45;;;;;;;20.24;57.79;147232.19;1687598;84;21003;-56
2022/06/05 10:15:07;;;;;;;5.30;2.30;;;;;;;20.27;57.36;147239.75;1630808;87;21058;-57
2022/06/05 10:17:58;;;;;;;4.80;2.10;;;;;;;20.35;57.32;147259.97;1629915;87;21660;-56
2022/06/05 10:20:56;;;;;;;3.87;2.35;;;;;;;20.44;56.56;147282.72;1671790;83;21087;-57
2022/06/05 10:23:55;;;;;;;6.30;2.45;;;;;;;20.60;56.26;147323.19;1713830;83;21078;-57
2022/06/05 10:26:27;;;;;;;4.22;2.37;;;;;;;20.87;55.38;147388.94;1713094;84;21054;-56
2022/06/05 10:29:20;;;;;;;8.85;2.62;;;;;;;21.15;54.45;147457.20;1679827;85;21051;-56
2022/06/05 10:32:02;;;;;;;6.12;2.30;;;;;;;21.33;53.92;147502.70;1679685;85;21098;-56
2022/06/05 10:34:46;;;;;;;4.25;2.12;;;;;;;21.50;53.64;147543.19;1679781;85;21567;-56
2022/06/05 10:37:40;;;;;;;5.03;2.22;;;;;;;21.70;52.57;147593.78;1687752;83;21527;-56
2022/06/05 10:40:46;;;;;;;3.72;1.80;;;;;;;21.88;52.06;147638.09;1682535;83;21502;-56
2022/06/05 10:43:28;;;;;;;4.90;2.00;;;;;;;22.13;50.58;147700.03;1720869;83;21016;-57
2022/06/05 10:46:06;;;;;;;3.50;1.80;;;;;;;22.21;49.22;147720.38;1720615;83;21573;-57
2022/06/05 10:48:51;;;;;;;4.50;2.25;;;;;;;22.23;48.84;147725.39;1709048;83;21512;-56
2022/06/05 10:52:00;;;;;;;3.10;1.70;;;;;;;22.21;48.86;147720.38;1706844;83;21058;-58
2022/06/05 10:54:35;;;;;;;5.33;2.10;;;;;;;22.31;49.15;147744.36;1720439;83;21080;-57
2022/06/05 10:57:19;;;;;;;5.47;2.15;;;;;;;22.57;48.26;147807.63;1720652;83;21016;-58
2022/06/05 11:00:25;;;;;;;3.67;1.70;;;;;;;22.72;47.98;147845.64;1720769;83;21016;-58
2022/06/05 11:03:29;;;;;;;2.98;1.77;;;;;;;22.93;47.81;147897.53;1713945;83;21070;-58
2022/06/05 11:06:36;;;;;;;3.77;1.82;;;;;;;23.10;46.22;147939.31;1713796;84;21539;-58
2022/06/05 11:09:29;;;;;;;3.92;1.67;;;;;;;23.23;46.20;147970.97;1717937;83;21048;-58
2022/06/05 11:15:18;;;;;;;3.20;1.62;;;;;;;23.08;46.03;147935.55;1720578;83;21083;-57
2022/06/05 11:18:13;;;;;;;4.28;1.70;;;;;;;23.12;44.91;147945.64;1715795;83;21100;-58
2022/06/05 11:20:43;;;;;;;3.58;2.10;;;;;;;22.97;45.38;147907.67;1720788;83;21138;-58
2022/06/05 11:23:15;;;;;;;4.12;1.80;;;;;;;23.15;45.66;147953.28;1716162;83;21019;-58
2022/06/05 11:26:05;;;;;;;4.40;1.80;;;;;;;23.36;44.17;148003.92;1708042;82;21079;-56
2022/06/05 11:28:53;;;;;;;4.63;1.73;;;;;;;23.52;44.25;148044.41;1707861;82;21042;-55
2022/06/05 11:31:50;;;;;;;3.30;1.60;;;;;;;23.36;45.22;148005.17;1713681;84;21039;-56
2022/06/05 11:34:58;;;;;;;5.75;1.67;;;;;;;23.29;44.88;147986.19;1712876;83;21589;-56
2022/06/05 11:37:45;;;;;;;2.65;1.42;;;;;;;23.11;45.61;147943.13;1713665;84;21091;-57
2022/06/05 11:40:37;;;;;;;3.17;1.67;;;;;;;23.49;43.23;148035.58;1712337;82;21533;-60
2022/06/05 11:43:32;;;;;;;1.87;1.17;;;;;;;23.71;43.31;148090.00;1707667;84;21040;-61
2022/06/05 11:46:23;;;;;;;2.42;1.47;;;;;;;23.75;41.04;148101.45;1692150;84;21148;-62
2022/06/05 11:49:15;;;;;;;2.40;1.32;;;;;;;23.69;40.61;148086.22;1708086;82;21043;-58
2022/06/05 11:52:13;;;;;;;3.17;1.65;;;;;;;23.84;40.31;148123.00;1703977;82;21062;-61
2022/06/05 11:55:03;;;;;;;2.52;1.20;;;;;;;23.91;40.70;148140.70;1707962;84;21016;-61
2022/06/05 11:57:41;;;;;;;3.12;1.40;;;;;;;24.08;39.20;148181.27;1707907;82;21052;-61
2022/06/05 12:00:29;;;;;;;3.67;1.60;;;;;;;24.20;39.53;148211.67;1708039;84;21558;-61
2022/06/05 12:03:17;;;;;;;1.87;1.10;;;;;;;24.26;39.38;148226.86;1707961;82;21028;-61
2022/06/05 12:06:34;;;;;;;2.60;1.30;;;;;;;24.37;38.23;148254.72;1707918;84;21096;-61
2022/06/05 12:09:07;;;;;;;4.47;1.25;;;;;;;24.34;38.44;148247.13;1707958;84;21044;-60
2022/06/05 12:11:42;;;;;;;5.10;1.42;;;;;;;24.36;38.83;148252.19;1707824;82;21541;-61
2022/06/05 12:14:27;;;;;;;2.22;1.32;;;;;;;24.54;38.67;148295.33;1713382;82;21056;-61
2022/06/05 12:17:18;;;;;;;2.35;1.20;;;;;;;24.66;37.87;148325.75;1720556;83;21040;-61
2022/06/05 12:20:29;;;;;;;2.20;1.20;;;;;;;24.66;37.54;148327.00;1720581;83;21560;-61
2022/06/05 12:23:18;;;;;;;5.53;1.50;;;;;;;24.64;37.54;148320.67;1719856;83;21099;-62